Terminal Aerodrome Forecast
Issued by NWS

Home | Current Version | Previous Version | Graphics & Text | Print | Product List | Glossary On
Versions: 1 2 3 4 5 6 7 8 9 10 11 12 13 14 15 16 17
000
FTUS43 KBIS 270717 AAB
TAFDIK
TAF AMD
KDIK 270717Z 2707/2806 00000KT P6SM -SN OVC005
      TEMPO 2707/2710 3SM -SN BR OVC004
     FM271200 04008KT 1SM -RASN BR OVC003
     FM271800 05014KT 3SM -RA BR OVC003
     FM280000 05010KT P6SM OVC015
     FM280200 04004KT P6SM OVC035=

USA.gov is the U.S. government's official web portal to all federal, state and local government web resources and services.